Time;durP1;ratioP1;P1;durP2;ratioP2;P2;SDS_P1;SDS_P2;PMS_P1;PMS_P2;Temp;Humidity;BMP_temperature;BMP_pressure;BME280_temperature;BME280_humidity;BME280_pressure;Samples;Min_cycle;Max_cycle;Signal;HPM_P1;HPM_P2
2021/08/24 00:01:30;;;;;;;15.60;10.70;;;;;;;;;;5071552;28;20099;-59
2021/08/24 00:03:56;;;;;;;16.52;10.90;;;;;;;;;;5053691;28;20021;-60
2021/08/24 00:06:22;;;;;;;23.83;11.43;;;;;;;;;;5070941;28;20064;-60
2021/08/24 00:08:50;;;;;;;16.13;10.93;;;;;;;;;;5053720;28;20019;-59
2021/08/24 00:11:16;;;;;;;17.65;11.40;;;;;;;;;;5071424;28;20029;-59
2021/08/24 00:13:42;;;;;;;16.38;10.85;;;;;;;;;;5071406;28;20017;-58
2021/08/24 00:16:09;;;;;;;16.42;10.80;;;;;;;;;;5070748;28;20052;-59
2021/08/24 00:18:35;;;;;;;16.15;11.27;;;;;;;;;;5071132;28;20028;-59
2021/08/24 00:21:01;;;;;;;16.85;10.70;;;;;;;;;;5071422;28;20032;-59
2021/08/24 00:23:28;;;;;;;16.08;10.68;;;;;;;;;;5071192;28;20103;-59
2021/08/24 00:25:55;;;;;;;16.90;11.48;;;;;;;;;;5070761;28;20025;-60
2021/08/24 00:28:21;;;;;;;17.38;11.68;;;;;;;;;;5071249;28;20464;-59
2021/08/24 00:30:47;;;;;;;16.27;10.73;;;;;;;;;;5071240;28;20032;-59
2021/08/24 00:33:14;;;;;;;17.60;11.00;;;;;;;;;;5053236;28;20503;-59
2021/08/24 00:35:41;;;;;;;17.42;10.30;;;;;;;;;;5070686;28;20028;-58
2021/08/24 00:38:11;;;;;;;17.45;10.73;;;;;;;;;;5052860;28;20025;-58
2021/08/24 00:40:37;;;;;;;15.75;10.75;;;;;;;;;;5053106;28;20403;-60
2021/08/24 00:43:04;;;;;;;17.88;10.80;;;;;;;;;;5053224;28;20116;-60
2021/08/24 00:45:31;;;;;;;16.73;11.38;;;;;;;;;;5070567;28;20042;-58
2021/08/24 00:47:57;;;;;;;17.60;11.00;;;;;;;;;;5071053;28;20028;-60
2021/08/24 00:50:23;;;;;;;16.95;11.35;;;;;;;;;;5083466;23;20051;-62
2021/08/24 00:52:50;;;;;;;17.23;10.38;;;;;;;;;;5072191;28;20028;-58
2021/08/24 00:55:16;;;;;;;16.10;10.35;;;;;;;;;;5070198;28;20028;-62
2021/08/24 00:57:44;;;;;;;17.23;10.90;;;;;;;;;;5070544;28;20097;-62
2021/08/24 01:00:10;;;;;;;16.80;10.73;;;;;;;;;;5072036;28;20020;-59
2021/08/24 01:02:36;;;;;;;16.67;10.93;;;;;;;;;;5072035;28;20028;-62
2021/08/24 01:05:02;;;;;;;17.02;11.32;;;;;;;;;;5071932;28;20032;-61
2021/08/24 01:07:58;;;;;;;17.27;10.88;;;;;;;;;;5071310;28;20020;-60
2021/08/24 01:10:27;;;;;;;18.65;10.75;;;;;;;;;;5061780;28;20028;-61
2021/08/24 01:12:58;;;;;;;16.45;10.27;;;;;;;;;;5070773;28;20086;-60
2021/08/24 01:15:36;;;;;;;17.77;11.40;;;;;;;;;;5071252;28;20507;-59
2021/08/24 01:18:12;;;;;;;17.48;11.00;;;;;;;;;;5072042;28;20036;-61
2021/08/24 01:20:46;;;;;;;17.40;11.35;;;;;;;;;;5071137;28;20420;-61
2021/08/24 01:23:22;;;;;;;18.08;11.40;;;;;;;;;;5071757;28;20028;-61
2021/08/24 01:25:59;;;;;;;18.00;11.98;;;;;;;;;;5073311;28;20035;-60
2021/08/24 01:28:29;;;;;;;18.58;11.35;;;;;;;;;;5073930;28;20024;-62
2021/08/24 01:31:05;;;;;;;17.38;11.25;;;;;;;;;;5074958;28;20032;-61
2021/08/24 01:33:50;;;;;;;17.35;11.00;;;;;;;;;;5075397;28;20096;-60
2021/08/24 01:36:36;;;;;;;18.65;11.70;;;;;;;;;;5074958;28;20024;-61
2021/08/24 01:39:08;;;;;;;17.35;11.57;;;;;;;;;;5054058;28;20036;-60
2021/08/24 01:41:53;;;;;;;18.23;11.60;;;;;;;;;;5075590;28;20025;-60
2021/08/24 01:44:20;;;;;;;20.67;11.73;;;;;;;;;;5073927;28;20270;-62
2021/08/24 01:46:52;;;;;;;17.55;11.27;;;;;;;;;;5074585;28;20028;-59
2021/08/24 01:49:20;;;;;;;19.25;11.75;;;;;;;;;;5075050;28;20025;-59
2021/08/24 01:51:53;;;;;;;17.52;11.27;;;;;;;;;;5073908;28;20021;-60
2021/08/24 01:54:22;;;;;;;19.35;11.80;;;;;;;;;;5075115;28;20534;-61
2021/08/24 01:56:50;;;;;;;19.70;11.38;;;;;;;;;;5072970;28;20032;-62
2021/08/24 01:59:21;;;;;;;19.33;11.75;;;;;;;;;;5073365;28;20028;-62
2021/08/24 02:01:51;;;;;;;17.38;11.13;;;;;;;;;;5073298;28;20044;-62
2021/08/24 02:04:30;;;;;;;17.60;10.88;;;;;;;;;;5073458;28;20024;-63
2021/08/24 02:06:55;;;;;;;;;;;;;;;;;;5075023;28;20029;-60
2021/08/24 02:09:29;;;;;;;17.10;10.82;;;;;;;;;;5073991;28;19953;-59
2021/08/24 02:11:55;;;;;;;17.35;11.68;;;;;;;;;;5074918;28;20055;-62
2021/08/24 02:14:21;;;;;;;17.83;11.52;;;;;;;;;;5073778;28;20056;-61
2021/08/24 02:16:48;;;;;;;17.73;11.82;;;;;;;;;;5072714;28;20040;-59
2021/08/24 02:19:37;;;;;;;18.65;11.90;;;;;;;;;;5073190;28;20033;-60
2021/08/24 02:22:06;;;;;;;17.35;11.88;;;;;;;;;;5067595;28;20032;-61
2021/08/24 02:24:36;;;;;;;19.10;11.98;;;;;;;;;;5074927;28;20480;-63
2021/08/24 02:27:05;;;;;;;18.77;10.95;;;;;;;;;;5073657;28;20020;-61
2021/08/24 02:29:31;;;;;;;17.77;11.30;;;;;;;;;;5073387;28;20124;-59
2021/08/24 02:32:00;;;;;;;17.98;11.38;;;;;;;;;;5073496;28;20017;-60
2021/08/24 02:34:29;;;;;;;17.52;11.60;;;;;;;;;;5073753;28;20107;-61
2021/08/24 02:37:15;;;;;;;19.63;12.25;;;;;;;;;;5072127;28;20031;-60
2021/08/24 02:39:48;;;;;;;20.05;11.45;;;;;;;;;;5074521;28;20396;-60
2021/08/24 02:42:19;;;;;;;18.52;11.75;;;;;;;;;;5073092;28;20115;-60
2021/08/24 02:44:55;;;;;;;18.95;12.65;;;;;;;;;;5074485;28;20112;-60
2021/08/24 02:47:21;;;;;;;19.08;12.07;;;;;;;;;;5072770;28;20034;-57
2021/08/24 02:49:48;;;;;;;18.80;11.93;;;;;;;;;;5074526;28;20036;-61
2021/08/24 02:52:14;;;;;;;20.52;11.75;;;;;;;;;;5074499;28;20472;-61
2021/08/24 02:54:42;;;;;;;18.15;11.43;;;;;;;;;;5074387;28;20042;-62
2021/08/24 02:57:08;;;;;;;20.02;11.23;;;;;;;;;;5073578;28;20275;-60
2021/08/24 02:59:35;;;;;;;18.80;11.40;;;;;;;;;;5074485;28;20420;-61
2021/08/24 03:02:01;;;;;;;19.52;11.43;;;;;;;;;;5073223;28;20446;-60
2021/08/24 03:04:27;;;;;;;19.92;11.43;;;;;;;;;;5074465;28;20029;-61
2021/08/24 03:06:56;;;;;;;18.65;11.85;;;;;;;;;;5072311;28;20468;-61
2021/08/24 03:09:23;;;;;;;18.80;11.25;;;;;;;;;;5072749;28;20078;-62
2021/08/24 03:12:01;;;;;;;18.58;11.88;;;;;;;;;;5074124;28;20099;-60
2021/08/24 03:14:34;;;;;;;20.02;11.85;;;;;;;;;;5073864;28;20025;-60
2021/08/24 03:17:04;;;;;;;19.75;11.55;;;;;;;;;;5072921;28;20028;-60
2021/08/24 03:19:32;;;;;;;19.70;11.57;;;;;;;;;;5055818;28;20033;-60
2021/08/24 03:21:58;;;;;;;17.98;11.60;;;;;;;;;;5072479;28;20318;-61
2021/08/24 03:24:25;;;;;;;19.83;12.07;;;;;;;;;;5072115;28;20048;-61
2021/08/24 03:26:51;;;;;;;19.63;12.18;;;;;;;;;;5071903;28;20024;-61
2021/08/24 03:29:20;;;;;;;19.42;11.57;;;;;;;;;;5073344;28;20104;-61
2021/08/24 03:31:49;;;;;;;17.88;11.55;;;;;;;;;;5073289;28;20025;-61
2021/08/24 03:34:15;;;;;;;19.02;12.00;;;;;;;;;;5072293;28;20082;-60
2021/08/24 03:36:41;;;;;;;22.20;11.65;;;;;;;;;;5072467;28;20036;-60
2021/08/24 03:39:07;;;;;;;19.63;12.73;;;;;;;;;;5073167;28;20029;-60
2021/08/24 03:41:33;;;;;;;20.25;12.57;;;;;;;;;;5071947;28;20021;-60
2021/08/24 03:43:59;;;;;;;19.58;11.90;;;;;;;;;;5072016;28;20074;-60
2021/08/24 03:46:25;;;;;;;19.52;12.40;;;;;;;;;;5071949;28;20028;-60
2021/08/24 03:48:51;;;;;;;18.98;11.85;;;;;;;;;;5072910;28;20051;-61
2021/08/24 03:51:17;;;;;;;22.27;13.07;;;;;;;;;;5071584;28;20055;-61
2021/08/24 03:53:43;;;;;;;20.52;12.23;;;;;;;;;;5073037;28;20515;-59
2021/08/24 03:56:09;;;;;;;20.75;11.82;;;;;;;;;;5070980;28;20365;-58
2021/08/24 03:58:35;;;;;;;21.17;12.50;;;;;;;;;;5072921;28;20028;-61
2021/08/24 04:01:01;;;;;;;21.95;13.10;;;;;;;;;;5072581;28;20107;-59
2021/08/24 04:03:28;;;;;;;20.40;12.45;;;;;;;;;;5072739;28;20048;-61
2021/08/24 04:05:57;;;;;;;19.50;12.85;;;;;;;;;;5072157;28;20450;-61
2021/08/24 04:08:23;;;;;;;20.05;13.15;;;;;;;;;;5071293;28;20020;-60
2021/08/24 04:10:49;;;;;;;19.05;12.88;;;;;;;;;;5072416;28;20150;-61
2021/08/24 04:13:15;;;;;;;21.40;13.68;;;;;;;;;;5072562;28;20032;-61
2021/08/24 04:15:41;;;;;;;20.10;13.45;;;;;;;;;;5070308;28;20024;-59
2021/08/24 04:18:07;;;;;;;22.88;14.18;;;;;;;;;;5072584;28;20052;-60
2021/08/24 04:20:33;;;;;;;22.23;13.40;;;;;;;;;;5072261;28;20027;-61
2021/08/24 04:22:59;;;;;;;20.10;13.27;;;;;;;;;;5071122;28;20473;-59
2021/08/24 04:25:25;;;;;;;20.67;13.68;;;;;;;;;;5071704;28;20056;-61
2021/08/24 04:27:51;;;;;;;20.70;13.57;;;;;;;;;;5072085;28;20028;-60
2021/08/24 04:30:17;;;;;;;20.70;13.85;;;;;;;;;;5070925;28;20068;-61
2021/08/24 04:32:44;;;;;;;21.13;14.65;;;;;;;;;;5070727;28;20109;-60
2021/08/24 04:35:11;;;;;;;22.63;14.30;;;;;;;;;;5070164;28;20024;-61
2021/08/24 04:37:37;;;;;;;20.50;13.35;;;;;;;;;;5072125;28;20082;-61
2021/08/24 04:40:03;;;;;;;21.02;13.70;;;;;;;;;;5071923;28;20063;-63
2021/08/24 04:42:29;;;;;;;19.40;13.00;;;;;;;;;;5072092;28;20104;-62
2021/08/24 04:44:56;;;;;;;19.80;13.55;;;;;;;;;;5071903;28;20451;-59
2021/08/24 04:47:22;;;;;;;24.95;14.27;;;;;;;;;;5071328;28;20023;-62
2021/08/24 04:49:48;;;;;;;22.90;14.25;;;;;;;;;;5071103;28;20111;-62
2021/08/24 04:52:14;;;;;;;20.05;13.30;;;;;;;;;;5070819;28;20553;-61
2021/08/24 04:54:40;;;;;;;20.50;13.30;;;;;;;;;;5070697;28;20025;-57
2021/08/24 04:57:07;;;;;;;23.85;14.13;;;;;;;;;;5071326;28;20126;-61
2021/08/24 04:59:33;;;;;;;26.48;17.40;;;;;;;;;;5067994;28;20031;-60
2021/08/24 05:01:59;;;;;;;24.67;16.90;;;;;;;;;;5071846;28;20077;-58
2021/08/24 05:04:25;;;;;;;28.17;18.35;;;;;;;;;;5070824;28;20036;-61
2021/08/24 05:06:52;;;;;;;22.05;14.00;;;;;;;;;;5069641;28;20032;-63
2021/08/24 05:09:18;;;;;;;21.38;14.52;;;;;;;;;;5070377;28;20055;-60
2021/08/24 05:11:45;;;;;;;22.08;14.93;;;;;;;;;;5071697;28;20016;-57
2021/08/24 05:14:11;;;;;;;21.33;14.63;;;;;;;;;;5071660;28;20089;-59
2021/08/24 05:16:38;;;;;;;23.55;15.20;;;;;;;;;;5071098;28;20025;-60
2021/08/24 05:19:04;;;;;;;27.33;18.05;;;;;;;;;;5070318;28;20025;-62
2021/08/24 05:21:30;;;;;;;22.23;13.90;;;;;;;;;;5071556;28;20025;-60
2021/08/24 05:23:57;;;;;;;20.52;13.82;;;;;;;;;;5071177;28;20035;-60
2021/08/24 05:26:23;;;;;;;23.42;14.55;;;;;;;;;;5071382;28;20052;-53
2021/08/24 05:28:49;;;;;;;28.23;20.27;;;;;;;;;;5072762;28;20578;-59
2021/08/24 05:31:15;;;;;;;23.05;15.35;;;;;;;;;;5072262;28;20033;-60
2021/08/24 05:33:42;;;;;;;21.45;14.02;;;;;;;;;;5071145;28;20473;-60
2021/08/24 05:36:10;;;;;;;28.42;17.02;;;;;;;;;;5071701;28;20021;-58
2021/08/24 05:38:36;;;;;;;22.77;14.13;;;;;;;;;;5072300;28;20032;-61
2021/08/24 05:41:03;;;;;;;22.60;13.85;;;;;;;;;;5072270;28;20031;-61
2021/08/24 05:43:31;;;;;;;25.77;14.63;;;;;;;;;;5070838;28;20509;-58
2021/08/24 05:45:57;;;;;;;22.55;14.82;;;;;;;;;;5071489;28;20043;-62
2021/08/24 05:48:26;;;;;;;23.42;15.05;;;;;;;;;;5072301;28;20029;-59
2021/08/24 05:50:52;;;;;;;23.88;14.88;;;;;;;;;;5069346;28;20025;-61
2021/08/24 05:53:18;;;;;;;23.15;14.93;;;;;;;;;;5072049;28;20108;-61
2021/08/24 05:55:44;;;;;;;23.95;16.30;;;;;;;;;;5068785;28;20060;-58
2021/08/24 05:58:10;;;;;;;21.10;14.40;;;;;;;;;;5071033;28;20029;-60
2021/08/24 06:00:37;;;;;;;24.35;15.18;;;;;;;;;;5070795;28;20039;-60
2021/08/24 06:03:03;;;;;;;20.20;14.25;;;;;;;;;;5069830;28;20459;-59
2021/08/24 06:05:29;;;;;;;21.05;14.35;;;;;;;;;;5068501;28;20552;-57
2021/08/24 06:07:55;;;;;;;22.15;14.05;;;;;;;;;;5070255;28;20485;-62
2021/08/24 06:10:21;;;;;;;24.25;17.63;;;;;;;;;;5072909;28;20028;-60
2021/08/24 06:12:47;;;;;;;23.80;14.23;;;;;;;;;;5074110;28;20020;-58
2021/08/24 06:15:14;;;;;;;19.50;13.15;;;;;;;;;;5073181;28;20021;-59
2021/08/24 06:17:41;;;;;;;22.80;14.13;;;;;;;;;;5073505;28;20094;-60
2021/08/24 06:20:08;;;;;;;19.52;12.88;;;;;;;;;;5072783;28;20024;-59
2021/08/24 06:22:34;;;;;;;23.67;16.35;;;;;;;;;;5074354;28;20456;-54
2021/08/24 06:25:00;;;;;;;21.10;13.52;;;;;;;;;;5074219;28;20392;-54
2021/08/24 06:27:26;;;;;;;20.67;13.27;;;;;;;;;;5072571;28;20059;-60
2021/08/24 06:29:52;;;;;;;18.10;12.20;;;;;;;;;;5074354;28;20017;-62
2021/08/24 06:32:29;;;;;;;19.67;12.80;;;;;;;;;;5074362;28;20024;-62
2021/08/24 06:34:55;;;;;;;21.80;12.93;;;;;;;;;;5074463;28;20028;-59
2021/08/24 06:37:21;;;;;;;22.08;13.18;;;;;;;;;;5073657;28;20434;-60
2021/08/24 06:39:47;;;;;;;20.60;13.30;;;;;;;;;;5074205;28;20070;-60
2021/08/24 06:42:13;;;;;;;20.45;12.50;;;;;;;;;;5074005;28;20520;-60
2021/08/24 06:44:39;;;;;;;30.55;12.73;;;;;;;;;;5073972;28;20082;-62
2021/08/24 06:47:05;;;;;;;19.95;13.93;;;;;;;;;;5073246;28;20032;-60
2021/08/24 06:52:00;;;;;;;21.48;12.98;;;;;;;;;;5069102;28;20048;-58
2021/08/24 06:54:29;;;;;;;18.75;12.55;;;;;;;;;;5073115;28;20028;-59
2021/08/24 06:56:55;;;;;;;19.50;13.40;;;;;;;;;;5072385;28;20035;-59
2021/08/24 06:59:21;;;;;;;19.35;12.73;;;;;;;;;;5071963;28;20024;-60
2021/08/24 07:01:47;;;;;;;20.42;13.43;;;;;;;;;;5052824;28;20087;-57
2021/08/24 07:04:13;;;;;;;21.52;15.55;;;;;;;;;;5051391;28;20029;-64
2021/08/24 07:06:39;;;;;;;19.15;13.73;;;;;;;;;;5051007;28;20077;-63
2021/08/24 07:09:06;;;;;;;20.40;13.18;;;;;;;;;;5052052;28;20025;-64
2021/08/24 07:11:32;;;;;;;18.27;13.13;;;;;;;;;;5052432;28;20056;-64
2021/08/24 07:13:59;;;;;;;19.00;12.77;;;;;;;;;;5053469;28;20473;-64
2021/08/24 07:16:26;;;;;;;19.45;13.43;;;;;;;;;;5052783;28;20496;-64
2021/08/24 07:18:53;;;;;;;19.05;13.30;;;;;;;;;;5052550;28;20505;-63
2021/08/24 07:21:20;;;;;;;18.17;12.85;;;;;;;;;;5051813;28;20428;-63
2021/08/24 07:23:46;;;;;;;20.02;13.57;;;;;;;;;;5052276;28;20028;-63
2021/08/24 07:26:13;;;;;;;17.92;13.35;;;;;;;;;;5061827;28;20017;-64
2021/08/24 07:28:39;;;;;;;17.70;12.98;;;;;;;;;;5070380;28;20083;-62
2021/08/24 07:31:05;;;;;;;18.67;13.93;;;;;;;;;;5055963;28;20028;-62
2021/08/24 07:33:32;;;;;;;18.95;13.52;;;;;;;;;;5053832;28;20021;-64
2021/08/24 07:35:58;;;;;;;19.08;13.55;;;;;;;;;;5053589;28;20366;-62
2021/08/24 07:38:24;;;;;;;16.98;13.15;;;;;;;;;;5062752;28;20103;-62
2021/08/24 07:40:50;;;;;;;18.38;13.18;;;;;;;;;;5071916;28;20369;-64
2021/08/24 07:43:16;;;;;;;19.25;13.65;;;;;;;;;;5058550;28;20384;-64
2021/08/24 07:45:42;;;;;;;18.90;14.30;;;;;;;;;;5051576;28;20021;-64
2021/08/24 07:48:09;;;;;;;18.58;13.40;;;;;;;;;;5051830;28;20025;-63
2021/08/24 07:50:35;;;;;;;18.77;14.13;;;;;;;;;;5050423;28;20047;-64
2021/08/24 07:53:01;;;;;;;21.08;14.13;;;;;;;;;;5051713;28;20102;-64
2021/08/24 07:55:27;;;;;;;18.35;13.18;;;;;;;;;;5050138;28;20025;-64
2021/08/24 07:57:53;;;;;;;17.95;13.57;;;;;;;;;;5051722;28;20025;-64
2021/08/24 08:00:19;;;;;;;18.25;13.68;;;;;;;;;;5051539;28;20021;-56
2021/08/24 08:02:45;;;;;;;19.08;13.48;;;;;;;;;;5051983;28;20040;-69
2021/08/24 08:05:13;;;;;;;19.15;15.40;;;;;;;;;;5051427;28;20405;-63
2021/08/24 08:07:39;;;;;;;18.42;15.05;;;;;;;;;;5051488;28;20049;-67
2021/08/24 08:10:05;;;;;;;18.05;15.70;;;;;;;;;;5050282;28;20445;-62
2021/08/24 08:12:31;;;;;;;18.20;15.57;;;;;;;;;;5051552;28;20021;-62
2021/08/24 08:14:57;;;;;;;19.65;14.85;;;;;;;;;;5049488;28;20068;-62
2021/08/24 08:17:23;;;;;;;18.60;14.77;;;;;;;;;;5048335;28;20072;-62
2021/08/24 08:19:49;;;;;;;18.00;14.68;;;;;;;;;;5051304;28;20025;-62
2021/08/24 08:22:15;;;;;;;18.02;14.07;;;;;;;;;;5051248;28;20025;-62
2021/08/24 08:24:42;;;;;;;17.95;14.27;;;;;;;;;;5049543;28;20060;-62
2021/08/24 08:27:08;;;;;;;17.05;13.65;;;;;;;;;;5049234;28;20099;-61
2021/08/24 08:29:34;;;;;;;19.92;14.07;;;;;;;;;;5050755;28;20021;-62
2021/08/24 08:32:04;;;;;;;17.27;13.48;;;;;;;;;;5049822;28;20078;-62
2021/08/24 08:34:30;;;;;;;19.10;14.60;;;;;;;;;;5050058;28;20040;-62
2021/08/24 08:36:56;;;;;;;19.15;14.55;;;;;;;;;;5050200;28;20465;-62
2021/08/24 08:39:22;;;;;;;17.13;13.82;;;;;;;;;;5050934;28;20029;-62
2021/08/24 08:42:26;;;;;;;17.73;13.10;;;;;;;;;;5049648;28;20025;-63
2021/08/24 08:45:19;;;;;;;17.83;14.00;;;;;;;;;;4989124;28;20105;-62
2021/08/24 08:47:45;;;;;;;16.38;13.20;;;;;;;;;;4965480;28;20041;-61
2021/08/24 08:50:29;;;;;;;16.95;13.55;;;;;;;;;;5029136;28;20041;-61
2021/08/24 08:52:59;;;;;;;19.58;13.13;;;;;;;;;;5049286;28;20431;-61
2021/08/24 08:55:25;;;;;;;18.23;13.48;;;;;;;;;;5050223;28;20033;-61
2021/08/24 08:58:07;;;;;;;17.38;12.80;;;;;;;;;;5049715;28;20021;-61
2021/08/24 09:00:49;;;;;;;17.85;12.82;;;;;;;;;;5050955;28;20448;-61
2021/08/24 09:03:23;;;;;;;17.55;13.05;;;;;;;;;;5050471;28;20024;-60
2021/08/24 09:05:49;;;;;;;17.88;13.70;;;;;;;;;;5049762;28;20029;-62
2021/08/24 09:08:19;;;;;;;17.90;14.05;;;;;;;;;;5049169;28;20382;-61
2021/08/24 09:10:47;;;;;;;18.85;14.50;;;;;;;;;;5050459;28;20029;-61
2021/08/24 09:13:24;;;;;;;16.92;13.45;;;;;;;;;;5050798;28;20395;-62
2021/08/24 09:15:57;;;;;;;16.75;13.45;;;;;;;;;;5049737;28;20104;-61
2021/08/24 09:18:41;;;;;;;18.00;13.90;;;;;;;;;;5050239;28;20104;-60
2021/08/24 09:21:09;;;;;;;19.30;13.63;;;;;;;;;;5049202;28;20120;-59
2021/08/24 09:23:35;;;;;;;18.35;13.43;;;;;;;;;;5050567;28;20103;-61
2021/08/24 09:26:01;;;;;;;17.98;12.93;;;;;;;;;;5046645;28;20128;-61
2021/08/24 09:28:28;;;;;;;26.55;20.73;;;;;;;;;;5050584;28;20040;-61
2021/08/24 09:30:54;;;;;;;21.83;15.73;;;;;;;;;;5048884;28;20021;-61
2021/08/24 09:33:21;;;;;;;17.55;14.35;;;;;;;;;;5048637;28;20059;-61
2021/08/24 09:35:47;;;;;;;22.40;14.77;;;;;;;;;;5048333;28;20104;-61
2021/08/24 09:38:13;;;;;;;19.45;14.23;;;;;;;;;;5050387;28;20067;-59
2021/08/24 09:40:41;;;;;;;19.02;14.80;;;;;;;;;;5048858;28;20056;-61
2021/08/24 09:43:26;;;;;;;19.83;15.20;;;;;;;;;;5050112;28;20347;-61
2021/08/24 09:46:21;;;;;;;18.13;14.52;;;;;;;;;;5052818;28;20025;-61
2021/08/24 09:48:54;;;;;;;20.05;15.07;;;;;;;;;;5041159;28;20098;-60
2021/08/24 09:51:28;;;;;;;19.15;14.68;;;;;;;;;;5052092;28;20041;-61
2021/08/24 09:53:56;;;;;;;17.13;14.65;;;;;;;;;;5053652;28;20025;-62
2021/08/24 09:56:23;;;;;;;18.87;15.13;;;;;;;;;;5053405;28;20542;-63
2021/08/24 09:58:50;;;;;;;17.67;14.75;;;;;;;;;;5054312;28;20259;-63
2021/08/24 10:01:16;;;;;;;18.42;14.90;;;;;;;;;;5052413;28;20443;-63
2021/08/24 10:03:44;;;;;;;18.38;14.25;;;;;;;;;;5053450;28;20032;-62
2021/08/24 10:06:16;;;;;;;17.47;14.10;;;;;;;;;;5053118;28;20029;-63
2021/08/24 10:08:43;;;;;;;18.85;15.45;;;;;;;;;;5052335;28;20060;-63
2021/08/24 10:11:08;;;;;;;19.17;15.10;;;;;;;;;;5052152;28;20029;-63
2021/08/24 10:13:39;;;;;;;17.58;15.35;;;;;;;;;;5052242;28;20029;-63
2021/08/24 10:16:15;;;;;;;17.58;15.02;;;;;;;;;;5052757;28;20029;-63
2021/08/24 10:18:41;;;;;;;19.13;14.73;;;;;;;;;;5053527;28;20029;-63
2021/08/24 10:21:12;;;;;;;18.35;15.10;;;;;;;;;;5053266;28;20025;-62
2021/08/24 10:23:52;;;;;;;17.55;14.90;;;;;;;;;;5053551;28;20086;-62
2021/08/24 10:26:22;;;;;;;19.48;15.05;;;;;;;;;;5052793;28;20029;-62
2021/08/24 10:28:53;;;;;;;18.15;14.70;;;;;;;;;;5052054;28;20035;-62
2021/08/24 10:31:38;;;;;;;17.25;14.88;;;;;;;;;;5053302;28;20104;-63
2021/08/24 10:34:13;;;;;;;18.08;15.10;;;;;;;;;;5053485;28;20136;-63
2021/08/24 10:36:46;;;;;;;17.75;14.82;;;;;;;;;;5052318;28;20047;-63
2021/08/24 10:39:24;;;;;;;17.67;14.70;;;;;;;;;;5053074;28;20021;-62
2021/08/24 10:41:50;;;;;;;;;;;;;;;;;;5053093;28;20029;-62
2021/08/24 10:44:20;;;;;;;19.70;14.38;;;;;;;;;;5052385;28;19905;-62
2021/08/24 10:46:52;;;;;;;17.00;14.07;;;;;;;;;;5051871;28;20056;-62
2021/08/24 10:49:18;;;;;;;21.08;14.63;;;;;;;;;;5052721;28;20025;-62
2021/08/24 10:51:47;;;;;;;18.10;14.23;;;;;;;;;;5051659;28;20033;-62
2021/08/24 10:54:18;;;;;;;17.25;14.50;;;;;;;;;;5053100;28;20053;-62
2021/08/24 10:57:04;;;;;;;16.92;14.00;;;;;;;;;;5051031;28;20017;-62
2021/08/24 10:59:49;;;;;;;19.00;14.50;;;;;;;;;;5052945;28;20100;-63
2021/08/24 11:02:33;;;;;;;17.02;14.73;;;;;;;;;;5052431;28;20131;-63
2021/08/24 11:05:05;;;;;;;17.77;14.60;;;;;;;;;;5052321;28;20041;-62
2021/08/24 11:07:37;;;;;;;18.50;14.63;;;;;;;;;;5050623;28;20026;-62
2021/08/24 11:10:12;;;;;;;22.23;15.25;;;;;;;;;;5052581;28;20032;-62
2021/08/24 11:12:53;;;;;;;17.27;14.80;;;;;;;;;;5052619;28;20503;-63
2021/08/24 11:15:29;;;;;;;18.50;14.95;;;;;;;;;;5051734;28;20119;-63
2021/08/24 11:18:07;;;;;;;17.52;14.95;;;;;;;;;;5052005;28;20025;-61
2021/08/24 11:20:33;;;;;;;;;;;;;;;;;;5034766;28;20506;-63
2021/08/24 11:23:05;;;;;;;19.80;15.02;;;;;;;;;;5052033;28;19947;-63
2021/08/24 11:25:40;;;;;;;17.55;15.45;;;;;;;;;;5050968;28;20021;-61
2021/08/24 11:28:06;;;;;;;18.00;15.20;;;;;;;;;;5050120;28;20071;-62
2021/08/24 11:30:38;;;;;;;17.52;14.80;;;;;;;;;;5050575;28;20021;-61
2021/08/24 11:33:11;;;;;;;17.50;15.18;;;;;;;;;;5051719;28;20020;-62
2021/08/24 11:35:58;;;;;;;19.17;16.08;;;;;;;;;;5051475;28;20024;-63
2021/08/24 11:38:28;;;;;;;17.83;15.83;;;;;;;;;;5051690;28;20028;-63
2021/08/24 11:41:01;;;;;;;19.55;16.10;;;18.80;99.90;;;;;;5051714;28;20469;-62
2021/08/24 11:43:32;;;;;;;18.10;15.90;;;;;;;;;;5051840;28;20150;-63
2021/08/24 11:45:59;;;;;;;19.48;16.20;;;;;;;;;;5050987;28;20124;-63
2021/08/24 11:48:30;;;;;;;20.23;16.70;;;;;;;;;;5051231;28;20447;-63
2021/08/24 11:51:00;;;;;;;19.70;17.00;;;;;;;;;;5051338;28;20052;-63
2021/08/24 11:53:29;;;;;;;18.38;16.23;;;;;;;;;;5051394;28;20539;-63
2021/08/24 11:55:58;;;;;;;18.55;16.55;;;;;;;;;;5051219;28;20033;-63
2021/08/24 11:58:30;;;;;;;19.92;16.45;;;;;;;;;;5051467;28;20453;-63
2021/08/24 12:00:58;;;;;;;18.75;16.00;;;;;;;;;;5051531;28;20393;-63
2021/08/24 12:03:25;;;;;;;18.25;16.23;;;;;;;;;;5050050;28;20025;-63
2021/08/24 12:05:57;;;;;;;18.23;16.33;;;;;;;;;;5050781;28;20039;-63
2021/08/24 12:08:26;;;;;;;19.35;15.85;;;;;;;;;;5049282;28;20036;-63
2021/08/24 12:10:52;;;;;;;18.17;16.17;;;;;;;;;;5049365;28;20021;-63
2021/08/24 12:13:29;;;;;;;18.65;16.25;;;;;;;;;;5050729;28;20091;-63
2021/08/24 12:16:15;;;;;;;17.95;15.95;;;;;;;;;;5048942;28;20107;-63
2021/08/24 12:18:41;;;;;;;18.08;16.08;;;;;;;;;;5040411;28;20033;-63
2021/08/24 12:21:28;;;;;;;18.50;16.35;;;;;;;;;;5050980;28;20120;-63
2021/08/24 12:23:54;;;;;;;18.73;16.10;;;30.40;97.20;;;;;;5049850;28;20025;-63
2021/08/24 12:26:25;;;;;;;18.50;16.50;;;;;;;;;;5049961;28;20025;-63
2021/08/24 12:28:52;;;;;;;19.55;17.30;;;;;;;;;;5050157;28;20112;-63
2021/08/24 12:31:24;;;;;;;18.83;16.23;;;;;;;;;;5050783;28;20036;-62
2021/08/24 12:33:50;;;;;;;18.30;16.40;;;;;;;;;;5050678;28;20480;-63
2021/08/24 12:36:22;;;;;;;18.35;16.40;;;;;;;;;;5050003;28;20043;-62
2021/08/24 12:38:50;;;;;;;18.23;16.33;;;;;;;;;;5050666;28;20124;-62
2021/08/24 12:41:31;;;;;;;19.30;16.17;;;;;;;;;;5050585;28;20424;-63
2021/08/24 12:44:15;;;;;;;18.38;16.38;;;;;;;;;;5049492;28;20139;-63
2021/08/24 12:46:45;;;;;;;18.73;16.13;;;;;;;;;;5049944;28;20024;-64
2021/08/24 12:49:15;;;;;;;18.80;15.93;;;;;;;;;;5050697;28;20141;-63
2021/08/24 12:51:48;;;;;;;18.20;16.13;;;;;;;;;;5075013;22;20044;-62
2021/08/24 12:54:16;;;;;;;19.75;16.15;;;;;;;;;;5033788;28;20035;-63
2021/08/24 12:56:46;;;;;;;18.23;16.27;;;;;;;;;;5051273;28;20109;-62
2021/08/24 12:59:33;;;;;;;18.25;16.30;;;;;;;;;;5051772;28;20058;-62
2021/08/24 13:02:11;;;;;;;18.17;16.27;;;;;;;;;;5051099;28;20112;-63
2021/08/24 13:04:37;;;;;;;18.88;16.40;;;;;;;;;;5033455;28;20449;-62
2021/08/24 13:07:15;;;;;;;19.17;17.15;;;;;;;;;;5032944;28;20025;-62
2021/08/24 13:09:41;;;;;;;;;;;;;;;;;;5052035;28;20017;-62
2021/08/24 13:12:17;;;;;;;18.90;16.95;;;;;;;;;;5051886;28;19909;-62
2021/08/24 13:14:46;;;;;;;18.92;16.77;;;;;;;;;;5033741;28;20481;-62
2021/08/24 13:17:21;;;;;;;18.88;16.75;;;;;;;;;;5032905;28;20090;-62
2021/08/24 13:19:53;;;;;;;19.13;16.65;;;30.50;96.20;;;;;;5035024;28;20040;-63
2021/08/24 13:22:34;;;;;;;21.08;17.23;;;32.80;92.00;;;;;;5055766;28;20032;-63
2021/08/24 13:25:03;;;;;;;18.60;16.60;;;33.50;91.30;;;;;;5054661;28;20031;-60
2021/08/24 13:27:32;;;;;;;19.67;17.58;;;33.70;91.60;;;;;;5054987;28;20041;-61
2021/08/24 13:30:03;;;;;;;20.67;17.20;;;34.60;90.60;;;;;;5036957;28;20044;-61
2021/08/24 13:33:03;;;;;;;19.25;17.25;;;34.40;90.60;;;;;;5055307;28;20022;-62
2021/08/24 13:35:51;;;;;;;19.27;17.20;;;34.90;90.50;;;;;;5001434;28;20481;-62
2021/08/24 13:38:26;;;;;;;19.13;17.10;;;34.60;89.90;;;;;;5043138;28;20072;-62
2021/08/24 13:40:54;;;;;;;20.00;17.40;;;35.20;90.20;;;;;;5054719;28;20033;-62
2021/08/24 13:43:26;;;;;;;19.83;16.45;;;35.10;88.80;;;;;;5054351;28;20105;-62
2021/08/24 13:45:54;;;;;;;19.00;16.90;;;35.10;88.40;;;;;;5053829;28;20037;-63
2021/08/24 13:48:25;;;;;;;18.48;16.58;;;35.50;89.60;;;;;;5036898;28;20025;-62
2021/08/24 13:51:06;;;;;;;19.80;17.27;;;35.90;87.10;;;;;;5054967;28;20494;-62
2021/08/24 13:53:35;;;;;;;18.73;16.73;;;35.80;87.70;;;;;;5038185;28;20028;-63
2021/08/24 13:56:03;;;;;;;19.35;17.25;;;35.80;85.70;;;;;;5053264;28;20040;-62
2021/08/24 13:58:41;;;;;;;19.42;17.40;;;35.80;86.00;;;;;;5054218;28;20029;-62
2021/08/24 14:01:18;;;;;;;19.73;17.63;;;35.20;87.80;;;;;;5036761;28;20033;-62
2021/08/24 14:04:06;;;;;;;19.63;17.13;;;35.30;83.80;;;;;;5054566;28;20052;-62
2021/08/24 14:06:50;;;;;;;19.08;17.13;;;35.30;84.80;;;;;;5033054;28;20287;-62
2021/08/24 14:09:37;;;;;;;19.77;17.67;;;35.30;82.90;;;;;;5027678;28;20111;-62
2021/08/24 14:12:34;;;;;;;18.95;16.90;;;35.60;83.00;;;;;;5051468;28;20264;-63
2021/08/24 14:15:12;;;;;;;19.30;17.30;;;34.30;83.80;;;;;;5048451;28;20087;-61
2021/08/24 14:17:43;;;;;;;20.10;18.00;;;32.70;84.00;;;;;;5053957;28;20033;-63
2021/08/24 14:20:30;;;;;;;19.23;17.23;;;;;;;;;;5054098;28;20550;-63
2021/08/24 14:22:58;;;;;;;19.08;17.08;;;;;;;;;;5019486;28;20061;-63
2021/08/24 14:25:26;;;;;;;19.08;17.05;;;;;;;;;;5035002;28;20037;-62
2021/08/24 14:27:53;;;;;;;18.90;16.90;;;31.50;85.60;;;;;;5053450;28;20099;-63